createdAt,value
2023-02-08T00:00:52.727Z,72.7
2023-02-08T00:05:53.226Z,68.4
2023-02-08T00:10:55.217Z,74
2023-02-08T00:15:55.770Z,75.4
2023-02-08T00:20:56.349Z,75.9
2023-02-08T00:25:59.895Z,76
2023-02-08T00:31:02.038Z,72.6
2023-02-08T00:36:03.909Z,67.2
2023-02-08T00:41:05.673Z,65.5
2023-02-08T00:46:09.958Z,66.3
2023-02-08T00:51:10.456Z,65
2023-02-08T00:56:13.597Z,69
2023-02-08T01:01:16.634Z,71.4
2023-02-08T01:06:17.177Z,64.9
2023-02-08T01:11:18.022Z,64.8
2023-02-08T01:16:27.655Z,65
2023-02-08T01:21:28.308Z,61.5
2023-02-08T01:26:28.797Z,61.5
2023-02-08T01:31:32.191Z,59.8
2023-02-08T01:36:35.196Z,66.5
2023-02-08T01:41:35.746Z,63.1
2023-02-08T01:46:38.757Z,69
2023-02-08T01:51:40.533Z,72.2
2023-02-08T01:56:43.069Z,70.3
2023-02-08T02:01:50.662Z,65.4
2023-02-08T02:06:50.273Z,63.4
2023-02-08T02:11:50.889Z,58.8
2023-02-08T02:16:56.066Z,61.1
2023-02-08T02:21:57.223Z,58.7
2023-02-08T02:27:03.077Z,55
2023-02-08T02:32:03.684Z,56.7
2023-02-08T02:37:04.284Z,54.5
2023-02-08T02:42:05.849Z,54
2023-02-08T02:47:07.622Z,58.8
2023-02-08T02:52:08.000Z,58.3
2023-02-08T02:57:11.066Z,59.5
2023-02-08T03:02:12.824Z,61.5
2023-02-08T03:07:14.638Z,56.2
2023-02-08T03:12:20.094Z,54
2023-02-08T03:17:20.753Z,53.7
2023-02-08T03:22:21.241Z,55.8
2023-02-08T03:27:24.577Z,51.4
2023-02-08T03:32:25.098Z,48.9
2023-02-08T03:37:25.566Z,53.8
2023-02-08T03:42:26.151Z,48.2
2023-02-08T03:47:28.806Z,47.7
2023-02-08T03:52:29.480Z,42.3
2023-02-08T03:57:37.360Z,45
2023-02-08T04:02:39.629Z,42.8
2023-02-08T04:07:40.155Z,42.4
2023-02-08T04:12:42.967Z,36.2
2023-02-08T04:17:43.542Z,39.4
2023-02-08T04:22:46.151Z,33.6
2023-02-08T04:27:46.725Z,34.9
2023-02-08T04:38:52.941Z,39.7
2023-02-08T04:43:53.620Z,30.9
2023-02-08T04:48:54.588Z,31.5
2023-02-08T04:53:58.231Z,33.5
2023-02-08T04:59:00.341Z,45.8
2023-02-08T05:04:00.863Z,44.7
2023-02-08T05:09:03.989Z,55.8
2023-02-08T05:14:04.776Z,42.5
2023-02-08T05:19:05.371Z,46.7
2023-02-08T05:24:07.978Z,47.3
2023-02-08T05:29:08.516Z,41.5
2023-02-08T05:34:13.119Z,48.4
2023-02-08T05:39:15.888Z,50.5
2023-02-08T05:44:19.596Z,49.9
2023-02-08T05:49:22.767Z,44.2
2023-02-08T05:54:23.394Z,31.5
2023-02-08T05:59:24.120Z,30.6
2023-02-08T06:04:25.290Z,33.4
2023-02-08T06:09:30.366Z,44.3
2023-02-08T06:14:30.877Z,41.3
2023-02-08T06:19:35.643Z,40.6
2023-02-08T06:24:36.353Z,45
2023-02-08T06:29:37.481Z,43.8
2023-02-08T06:34:38.148Z,50.8
2023-02-08T06:39:41.239Z,35
2023-02-08T06:44:54.063Z,37.9
2023-02-08T06:49:50.755Z,53.1
2023-02-08T06:54:52.664Z,37.7
2023-02-08T06:59:56.348Z,32.2
2023-02-08T07:04:56.738Z,35
2023-02-08T07:09:59.581Z,30.4
2023-02-08T07:15:00.277Z,29.5
2023-02-08T07:20:00.767Z,32.8
2023-02-08T07:25:01.262Z,30.5
2023-02-08T07:30:17.152Z,30.9
2023-02-08T07:35:17.834Z,26.3
2023-02-08T07:40:18.283Z,24.1
2023-02-08T07:45:18.774Z,53.4
2023-02-08T07:50:19.303Z,30
2023-02-08T07:55:23.605Z,29.5
2023-02-08T08:00:24.292Z,29
2023-02-08T08:05:26.979Z,29.2
2023-02-08T08:10:34.573Z,28.6
2023-02-08T08:15:40.731Z,25.2
2023-02-08T08:20:41.507Z,30.5
2023-02-08T08:25:46.165Z,27.8
2023-02-08T08:30:46.726Z,26.6
2023-02-08T08:35:47.308Z,31.4
2023-02-08T08:40:47.765Z,27.8
2023-02-08T08:45:49.384Z,28.9
2023-02-08T08:50:54.076Z,26.4
2023-02-08T08:55:58.304Z,30.4
2023-02-08T09:00:59.318Z,29.3
2023-02-08T09:06:02.369Z,26.8
2023-02-08T09:11:02.912Z,26.1
2023-02-08T09:16:05.774Z,103.5
2023-02-08T09:21:06.354Z,28.5
2023-02-08T09:26:08.445Z,25.2
2023-02-08T09:31:12.327Z,25.5
2023-02-08T09:36:12.900Z,25.4
2023-02-08T09:41:13.520Z,24.7
2023-02-08T09:46:15.392Z,27.4
2023-02-08T09:51:16.967Z,23.7
2023-02-08T09:56:19.713Z,25.9
2023-02-08T10:01:20.419Z,24.1
2023-02-08T10:06:21.435Z,24.9
2023-02-08T10:11:22.084Z,24
2023-02-08T10:16:22.737Z,69
2023-02-08T10:21:23.396Z,22.9
2023-02-08T10:26:24.517Z,20.7
2023-02-08T10:32:00.956Z,22.6
2023-02-08T10:37:04.830Z,21.7
2023-02-08T10:42:05.199Z,23.8
2023-02-08T10:47:07.795Z,25.2
2023-02-08T10:52:14.533Z,21.6
2023-02-08T10:57:17.357Z,22.8
2023-02-08T11:02:19.666Z,23.5
2023-02-08T11:07:20.086Z,23.6
2023-02-08T11:12:32.225Z,23.1
2023-02-08T11:17:22.709Z,20.7
2023-02-08T11:22:31.940Z,23.2
2023-02-08T11:27:37.307Z,21.7
2023-02-08T11:32:41.330Z,22.6
2023-02-08T11:37:42.989Z,20.8
2023-02-08T11:42:48.049Z,23.3
2023-02-08T11:47:52.309Z,24
2023-02-08T11:52:57.354Z,19.6
2023-02-08T11:58:01.711Z,22.8
2023-02-08T12:03:04.453Z,18.8
2023-02-08T12:08:06.067Z,15.4
2023-02-08T12:13:06.441Z,20.8
2023-02-08T12:18:09.611Z,19.1
2023-02-08T12:23:13.678Z,31.7
2023-02-08T12:28:21.667Z,18.4
2023-02-08T12:33:28.046Z,20.6
2023-02-08T12:38:22.537Z,21.7
2023-02-08T12:43:26.296Z,22.6
2023-02-08T12:48:26.768Z,19.4
2023-02-08T12:53:28.675Z,23.1
2023-02-08T12:58:29.136Z,18.4
2023-02-08T13:03:31.744Z,20.4
2023-02-08T13:08:32.398Z,17.9
2023-02-08T13:13:32.846Z,20
2023-02-08T13:18:33.645Z,20.7
2023-02-08T13:23:36.583Z,25.6
2023-02-08T13:28:41.978Z,23.3
2023-02-08T13:33:52.373Z,23.8
2023-02-08T13:38:44.688Z,22
2023-02-08T13:43:45.191Z,21.2
2023-02-08T13:48:45.988Z,23.7
2023-02-08T13:58:47.213Z,20.3
2023-02-08T14:03:47.709Z,23.8
2023-02-08T14:08:48.194Z,23.1
2023-02-08T14:13:48.831Z,20.7
2023-02-08T14:18:49.532Z,22.5
2023-02-08T14:23:49.945Z,24.2
2023-02-08T14:28:50.313Z,22.8
2023-02-08T14:33:50.750Z,24.4
2023-02-08T14:38:51.170Z,19.8
2023-02-08T14:43:51.868Z,20.4
2023-02-08T14:48:54.554Z,20.3
2023-02-08T14:53:55.262Z,20.4
2023-02-08T14:58:55.867Z,22.2
2023-02-08T15:03:56.556Z,24.1
2023-02-08T15:09:00.431Z,27.4
2023-02-08T15:14:01.321Z,26
2023-02-08T15:19:02.696Z,22.5
2023-02-08T15:24:05.800Z,25.5
2023-02-08T15:29:06.358Z,24.4
2023-02-08T15:34:07.089Z,25.5
2023-02-08T15:39:07.944Z,24.7
2023-02-08T15:44:09.253Z,24.6
2023-02-08T15:49:10.414Z,24.9
2023-02-08T15:54:10.977Z,24.2
2023-02-08T15:59:11.679Z,33.4
2023-02-08T16:04:12.286Z,46.7
2023-02-08T16:09:13.165Z,48.4
2023-02-08T16:14:13.749Z,37
2023-02-08T16:19:14.384Z,41.1
2023-02-08T16:24:14.974Z,33.4
2023-02-08T16:29:15.494Z,32.6
2023-02-08T16:34:16.630Z,36.2
2023-02-08T16:39:17.552Z,33.5
2023-02-08T16:44:18.504Z,33.2
2023-02-08T16:49:18.974Z,71.6
2023-02-08T16:54:19.945Z,29.8
2023-02-08T16:59:20.558Z,29
2023-02-08T17:04:26.469Z,42.6
2023-02-08T17:09:30.561Z,36.8
2023-02-08T17:14:31.477Z,39.1
2023-02-08T17:19:33.008Z,37
2023-02-08T17:24:33.689Z,30.7
2023-02-08T17:29:34.388Z,34.4
2023-02-08T17:34:35.704Z,44.8
2023-02-08T17:39:36.841Z,42.5
2023-02-08T17:44:37.439Z,40.6
2023-02-08T17:49:38.019Z,40.2
2023-02-08T17:54:38.539Z,38.4
2023-02-08T17:59:39.367Z,38
2023-02-08T18:04:40.118Z,42
2023-02-08T18:09:40.623Z,101.6
2023-02-08T18:14:41.037Z,100.4
2023-02-08T18:19:41.732Z,70.3
2023-02-08T18:24:42.187Z,65.5
2023-02-08T18:29:42.682Z,58.7
2023-02-08T18:34:43.112Z,49.4
2023-02-08T18:39:43.600Z,45.1
2023-02-08T18:44:44.728Z,44.4
2023-02-08T18:49:46.207Z,45.9
2023-02-08T18:54:46.628Z,54.1
2023-02-08T18:59:47.255Z,55.2
2023-02-08T19:04:47.755Z,56.2
2023-02-08T19:09:48.181Z,54.9
2023-02-08T19:14:48.713Z,74.4
2023-02-08T19:19:49.378Z,62.6
2023-02-08T19:24:49.901Z,65.8
2023-02-08T19:29:50.352Z,48.7
2023-02-08T19:34:50.776Z,50.8
2023-02-08T19:39:51.260Z,61.1
2023-02-08T19:44:51.854Z,61.7
2023-02-08T19:49:52.300Z,76.2
2023-02-08T19:54:52.764Z,68.4
2023-02-08T19:59:53.206Z,68.4
2023-02-08T20:04:53.585Z,71.4
2023-02-08T20:09:54.360Z,64.9
2023-02-08T20:14:54.737Z,58.1
2023-02-08T20:19:55.226Z,59.1
2023-02-08T20:24:55.607Z,72.2
2023-02-08T20:29:55.980Z,71.9
2023-02-08T20:34:59.593Z,56.2
2023-02-08T20:40:00.420Z,62.6
2023-02-08T20:45:01.285Z,65.4
2023-02-08T20:50:07.495Z,76.5
2023-02-08T20:55:09.101Z,75.1
2023-02-08T21:00:09.501Z,123.3
2023-02-08T21:05:09.879Z,58.6
2023-02-08T21:10:10.308Z,57.1
2023-02-08T21:15:11.139Z,62.5
2023-02-08T21:20:12.459Z,63.1
2023-02-08T21:25:12.843Z,64.5
2023-02-08T21:30:13.372Z,61.2
2023-02-08T21:35:13.811Z,54
2023-02-08T21:40:14.216Z,53.4
2023-02-08T21:45:14.734Z,60.9
2023-02-08T21:50:18.627Z,68.2
2023-02-08T21:55:19.435Z,69.5
2023-02-08T22:00:19.923Z,74.6
2023-02-08T22:05:22.174Z,67.3
2023-02-08T22:10:22.732Z,64.8
2023-02-08T22:15:23.331Z,72.1
2023-02-08T22:20:23.964Z,89.7
2023-02-08T22:25:24.630Z,77.9
2023-02-08T22:30:25.851Z,73.1
2023-02-08T22:35:26.409Z,70.1
2023-02-08T22:40:27.009Z,70.5
2023-02-08T22:45:27.617Z,70.1
2023-02-08T22:50:27.990Z,70.9
2023-02-08T22:55:28.415Z,75.7
2023-02-08T23:00:28.930Z,82.3
2023-02-08T23:05:29.356Z,76.5
2023-02-08T23:10:29.776Z,69.3
2023-02-08T23:15:30.342Z,65.1
2023-02-08T23:20:30.881Z,63.4
2023-02-08T23:25:31.263Z,59.9
2023-02-08T23:30:31.880Z,59.8
2023-02-08T23:35:32.309Z,59
2023-02-08T23:40:32.799Z,53.2
2023-02-08T23:45:33.646Z,48.6
2023-02-08T23:50:34.255Z,47.1
2023-02-08T23:55:34.764Z,51.9
